createdAt,value
2016-10-16T00:00:35.833Z,7.53
2016-10-16T00:05:32.196Z,7.42
2016-10-16T00:15:28.845Z,7.21
2016-10-16T00:25:34.350Z,7.24
2016-10-16T00:30:30.163Z,7.60
2016-10-16T00:35:26.855Z,7.63
2016-10-16T00:45:24.121Z,7.51
2016-10-16T00:50:20.267Z,7.38
2016-10-16T00:55:18.322Z,7.40
2016-10-16T01:00:14.633Z,7.36
2016-10-16T01:05:11.753Z,7.45
2016-10-16T01:10:07.963Z,7.51
2016-10-16T01:15:04.842Z,7.48
2016-10-16T01:20:01.233Z,7.39
2016-10-16T01:24:57.866Z,7.35
2016-10-16T01:29:55.443Z,7.24
2016-10-16T01:34:51.984Z,7.15
2016-10-16T01:39:48.600Z,7.13
2016-10-16T01:44:45.021Z,7.18
2016-10-16T01:49:43.554Z,7.21
2016-10-16T01:54:42.694Z,7.06
2016-10-16T01:59:40.888Z,7.05
2016-10-16T02:04:37.525Z,7.07
2016-10-16T02:14:37.602Z,6.93
2016-10-16T02:19:38.024Z,7.00
2016-10-16T02:24:33.569Z,7.02
2016-10-16T02:29:31.262Z,7.11
2016-10-16T02:39:32.476Z,6.97
2016-10-16T02:44:32.204Z,6.96
2016-10-16T02:54:30.249Z,6.74
2016-10-16T02:59:28.081Z,6.82
2016-10-16T03:24:33.400Z,6.51
2016-10-16T03:29:32.490Z,6.46
2016-10-16T03:39:33.481Z,6.38
2016-10-16T03:44:29.626Z,6.42
2016-10-16T03:54:28.703Z,6.46
2016-10-16T03:59:27.973Z,6.38
2016-10-16T04:04:23.694Z,6.24
2016-10-16T04:09:20.276Z,6.27
2016-10-16T04:14:18.363Z,6.08
2016-10-16T04:19:16.702Z,6.07
2016-10-16T04:24:15.360Z,6.16
2016-10-16T04:29:11.929Z,6.04
2016-10-16T04:34:08.433Z,6.12
2016-10-16T04:39:05.503Z,6.26
2016-10-16T04:44:03.342Z,6.27
2016-10-16T04:54:02.855Z,6.11
2016-10-16T05:09:01.599Z,6.09
2016-10-16T05:14:01.628Z,5.94
2016-10-16T05:18:57.558Z,5.86
2016-10-16T05:23:54.111Z,5.86
2016-10-16T05:28:52.002Z,5.79
2016-10-16T05:33:49.569Z,5.71
2016-10-16T05:38:47.249Z,5.80
2016-10-16T05:43:47.439Z,5.73
2016-10-16T05:48:43.530Z,5.75
2016-10-16T05:53:40.043Z,5.71
2016-10-16T05:58:37.865Z,5.68
2016-10-16T06:03:35.747Z,5.62
2016-10-16T06:13:37.310Z,5.65
2016-10-16T06:18:33.570Z,5.72
2016-10-16T06:23:34.420Z,5.84
2016-10-16T06:28:30.482Z,5.87
2016-10-16T06:33:27.055Z,5.90
2016-10-16T06:38:24.854Z,6.07
2016-10-16T06:43:21.704Z,6.04
2016-10-16T06:48:18.739Z,6.38
2016-10-16T06:58:17.706Z,6.56
2016-10-16T07:03:14.285Z,6.59
2016-10-16T07:08:10.440Z,6.60
2016-10-16T07:13:06.994Z,6.70
2016-10-16T07:18:03.969Z,7.00
2016-10-16T07:23:00.484Z,7.13
2016-10-16T07:27:57.143Z,7.18
2016-10-16T07:32:53.682Z,7.33
2016-10-16T07:37:50.408Z,7.47
2016-10-16T07:42:47.029Z,7.57
2016-10-16T07:47:43.413Z,7.69
2016-10-16T07:52:40.665Z,7.83
2016-10-16T07:57:37.203Z,7.94
2016-10-16T08:02:34.009Z,8.15
2016-10-16T08:07:31.666Z,8.28
2016-10-16T08:12:28.070Z,8.34
2016-10-16T08:17:24.839Z,8.51
2016-10-16T08:22:21.568Z,8.55
2016-10-16T08:27:18.147Z,8.66
2016-10-16T08:32:14.799Z,9.03
2016-10-16T08:37:12.004Z,9.32
2016-10-16T08:42:08.682Z,9.50
2016-10-16T08:47:04.993Z,9.47
2016-10-16T08:52:01.908Z,9.77
2016-10-16T08:56:58.689Z,10.16
2016-10-16T09:01:55.508Z,10.53
2016-10-16T09:06:52.950Z,10.74
2016-10-16T09:11:49.587Z,10.93
2016-10-16T09:16:46.332Z,11.18
2016-10-16T09:21:46.150Z,11.33
2016-10-16T09:26:42.317Z,11.41
2016-10-16T09:31:39.442Z,11.66
2016-10-16T09:36:36.284Z,11.90
2016-10-16T09:41:33.014Z,12.04
2016-10-16T09:46:29.593Z,12.37
2016-10-16T09:51:26.575Z,12.47
2016-10-16T09:56:23.093Z,12.73
2016-10-16T10:01:19.956Z,12.82
2016-10-16T10:06:16.483Z,12.94
2016-10-16T10:11:13.398Z,13.05
2016-10-16T10:16:10.160Z,13.16
2016-10-16T10:21:06.914Z,13.52
2016-10-16T10:26:03.798Z,13.52
2016-10-16T10:31:00.555Z,13.75
2016-10-16T10:35:59.977Z,13.92
2016-10-16T10:40:56.496Z,14.50
2016-10-16T10:45:53.478Z,15.18
2016-10-16T10:50:53.081Z,15.65
2016-10-16T10:55:50.961Z,16.41
2016-10-16T11:00:49.288Z,17.56
2016-10-16T11:05:47.369Z,18.77
2016-10-16T11:10:45.154Z,19.88
2016-10-16T11:15:42.499Z,20.41
2016-10-16T11:20:40.227Z,19.76
2016-10-16T11:25:37.424Z,18.45
2016-10-16T11:30:34.426Z,17.39
2016-10-16T11:35:32.914Z,16.69
2016-10-16T11:40:29.695Z,16.38
2016-10-16T11:45:25.519Z,16.12
2016-10-16T11:50:21.971Z,16.32
2016-10-16T11:55:18.261Z,16.33
2016-10-16T12:00:14.741Z,16.42
2016-10-16T12:05:11.322Z,16.32
2016-10-16T12:10:07.930Z,16.33
2016-10-16T12:15:05.040Z,16.36
2016-10-16T12:20:01.456Z,16.46
2016-10-16T12:24:57.955Z,16.60
2016-10-16T12:29:54.542Z,16.53
2016-10-16T12:34:51.219Z,16.50
2016-10-16T12:39:47.804Z,16.50
2016-10-16T12:44:44.382Z,16.61
2016-10-16T12:49:41.685Z,16.65
2016-10-16T12:54:38.472Z,16.60
2016-10-16T12:59:34.883Z,16.65
2016-10-16T13:04:31.543Z,16.69
2016-10-16T13:09:27.935Z,16.75
2016-10-16T13:14:24.748Z,16.72
2016-10-16T13:19:21.672Z,16.83
2016-10-16T13:24:18.688Z,16.83
2016-10-16T13:29:15.326Z,17.12
2016-10-16T13:34:11.857Z,17.16
2016-10-16T13:39:09.142Z,17.48
2016-10-16T13:44:06.991Z,17.36
2016-10-16T13:49:03.416Z,17.34
2016-10-16T13:54:00.059Z,17.94
2016-10-16T13:58:57.056Z,17.56
2016-10-16T14:03:53.310Z,17.46
2016-10-16T14:08:50.692Z,17.26
2016-10-16T14:13:47.168Z,17.19
2016-10-16T14:18:43.686Z,17.06
2016-10-16T14:23:40.216Z,16.90
2016-10-16T14:28:36.597Z,16.89
2016-10-16T14:33:34.181Z,17.14
2016-10-16T14:38:30.664Z,17.34
2016-10-16T14:43:27.276Z,17.27
2016-10-16T14:48:23.866Z,17.34
2016-10-16T14:53:23.038Z,17.29
2016-10-16T14:58:19.104Z,17.29
2016-10-16T15:03:15.625Z,17.26
2016-10-16T15:08:12.245Z,17.02
2016-10-16T15:13:08.969Z,16.90
2016-10-16T15:18:05.600Z,16.81
2016-10-16T15:23:02.035Z,16.71
2016-10-16T15:27:58.707Z,16.87
2016-10-16T15:32:55.026Z,16.91
2016-10-16T15:37:52.420Z,16.76
2016-10-16T15:42:49.282Z,16.54
2016-10-16T15:47:45.640Z,16.28
2016-10-16T15:52:42.470Z,15.91
2016-10-16T15:57:38.821Z,15.77
2016-10-16T16:02:35.166Z,15.58
2016-10-16T16:07:31.698Z,15.47
2016-10-16T16:12:35.048Z,15.31
2016-10-16T16:17:31.822Z,15.15
2016-10-16T16:22:28.115Z,14.88
2016-10-16T16:27:25.861Z,14.69
2016-10-16T16:32:21.897Z,14.51
2016-10-16T16:37:18.162Z,14.41
2016-10-16T16:42:17.102Z,14.23
2016-10-16T16:47:12.860Z,14.29
2016-10-16T16:52:09.418Z,13.93
2016-10-16T16:57:05.863Z,13.78
2016-10-16T17:02:02.236Z,13.57
2016-10-16T17:06:58.652Z,13.46
2016-10-16T17:11:55.544Z,13.42
2016-10-16T17:16:51.672Z,13.28
2016-10-16T17:21:48.521Z,13.25
2016-10-16T17:26:44.890Z,13.23
2016-10-16T17:31:42.636Z,13.09
2016-10-16T17:36:39.625Z,12.98
2016-10-16T17:41:36.096Z,13.05
2016-10-16T17:46:32.697Z,12.91
2016-10-16T17:51:29.251Z,12.78
2016-10-16T17:56:25.758Z,12.72
2016-10-16T18:01:22.563Z,12.67
2016-10-16T18:06:19.531Z,12.75
2016-10-16T18:11:15.941Z,12.73
2016-10-16T18:16:12.603Z,12.42
2016-10-16T18:21:09.005Z,12.46
2016-10-16T18:26:05.453Z,12.35
2016-10-16T18:31:02.014Z,12.18
2016-10-16T18:35:58.464Z,12.07
2016-10-16T18:40:54.774Z,11.87
2016-10-16T18:45:51.290Z,11.77
2016-10-16T18:50:47.670Z,11.83
2016-10-16T18:55:44.185Z,11.70
2016-10-16T19:00:41.192Z,11.55
2016-10-16T19:05:38.765Z,11.48
2016-10-16T19:10:34.968Z,11.41
2016-10-16T19:15:32.011Z,11.35
2016-10-16T19:20:29.050Z,11.32
2016-10-16T19:25:25.504Z,11.19
2016-10-16T19:30:21.983Z,11.17
2016-10-16T19:35:18.551Z,11.19
2016-10-16T19:40:14.914Z,11.17
2016-10-16T19:45:11.374Z,11.12
2016-10-16T19:50:08.297Z,11.04
2016-10-16T19:55:05.219Z,10.96
2016-10-16T20:00:01.638Z,10.90
2016-10-16T20:04:58.139Z,10.93
2016-10-16T20:09:54.622Z,10.90
2016-10-16T20:14:53.620Z,10.90
2016-10-16T20:19:53.956Z,11.10
2016-10-16T20:24:49.579Z,11.35
2016-10-16T20:29:45.741Z,11.45
2016-10-16T20:34:42.141Z,11.47
2016-10-16T20:39:38.727Z,11.54
2016-10-16T20:44:36.759Z,11.47
2016-10-16T20:49:33.020Z,11.30
2016-10-16T20:54:29.365Z,11.14
2016-10-16T20:59:25.860Z,11.04
2016-10-16T21:04:22.305Z,10.94
2016-10-16T21:09:18.730Z,10.82
2016-10-16T21:14:15.283Z,10.90
2016-10-16T21:19:11.961Z,10.81
2016-10-16T21:24:08.786Z,10.71
2016-10-16T21:29:05.284Z,10.63
2016-10-16T21:34:02.707Z,10.60
2016-10-16T21:38:58.886Z,10.48
2016-10-16T21:43:55.429Z,10.31
2016-10-16T21:48:54.391Z,10.07
2016-10-16T21:53:50.835Z,10.01
2016-10-16T21:58:47.309Z,9.97
2016-10-16T22:03:43.731Z,9.91
2016-10-16T22:08:40.058Z,9.79
2016-10-16T22:13:36.567Z,9.82
2016-10-16T22:18:33.386Z,9.87
2016-10-16T22:23:29.869Z,9.99
2016-10-16T22:28:26.228Z,9.98
2016-10-16T22:33:24.274Z,9.99
2016-10-16T22:38:20.433Z,9.83
2016-10-16T22:43:16.697Z,9.80
2016-10-16T22:48:13.138Z,9.80
2016-10-16T22:53:09.934Z,9.69
2016-10-16T22:58:06.545Z,9.76
2016-10-16T23:03:04.438Z,9.66
2016-10-16T23:08:00.677Z,9.72
2016-10-16T23:12:57.915Z,9.74
2016-10-16T23:17:54.479Z,9.73
2016-10-16T23:22:51.426Z,9.59
2016-10-16T23:27:49.309Z,9.68
2016-10-16T23:32:45.777Z,9.66
2016-10-16T23:37:42.308Z,9.65
2016-10-16T23:42:38.361Z,9.61
2016-10-16T23:47:34.796Z,9.61
2016-10-16T23:52:31.586Z,9.55
2016-10-16T23:57:28.257Z,9.54
